Time;durP1;ratioP1;P1;durP2;ratioP2;P2;SDS_P1;SDS_P2;PMS_P1;PMS_P2;Temp;Humidity;BMP_temperature;BMP_pressure;BME280_temperature;BME280_humidity;BME280_pressure;Samples;Min_cycle;Max_cycle;Signal;HPM_P1;HPM_P2
2023/08/22 00:03:32;;;;;;;10.07;8.88;;;25.40;96.10;;;;;;9756913;22;20220;-86
2023/08/22 00:07:17;;;;;;;13.35;8.90;;;25.30;96.10;;;;;;9757012;22;20176;-87
2023/08/22 00:11:03;;;;;;;13.60;9.15;;;25.30;96.20;;;;;;9756934;22;20175;-87
2023/08/22 00:14:50;;;;;;;10.20;8.65;;;25.20;96.30;;;;;;9755512;22;20592;-86
2023/08/22 00:18:36;;;;;;;12.40;9.30;;;25.20;96.40;;;;;;9756455;22;20199;-87
2023/08/22 00:22:21;;;;;;;10.55;9.23;;;25.10;96.50;;;;;;9757111;22;20156;-87
2023/08/22 00:26:07;;;;;;;11.48;9.05;;;25.10;96.50;;;;;;9757159;22;20188;-87
2023/08/22 00:29:52;;;;;;;13.70;8.98;;;25.10;96.60;;;;;;9756098;22;20193;-86
2023/08/22 00:33:38;;;;;;;13.10;9.45;;;25.00;96.70;;;;;;9783997;22;20155;-87
2023/08/22 00:37:24;;;;;;;12.38;9.13;;;25.00;96.80;;;;;;9784425;22;20148;-87
2023/08/22 00:41:09;;;;;;;9.40;8.40;;;25.00;96.90;;;;;;9756277;22;20180;-87
2023/08/22 00:44:55;;;;;;;10.93;9.10;;;25.00;97.10;;;;;;9756544;22;20494;-87
2023/08/22 00:48:42;;;;;;;10.05;8.70;;;24.90;97.10;;;;;;9756314;22;20234;-87
2023/08/22 00:52:27;;;;;;;11.18;9.65;;;24.90;97.20;;;;;;9756803;22;20198;-86
2023/08/22 00:56:14;;;;;;;10.38;9.35;;;24.90;97.30;;;;;;9756573;22;20239;-87
2023/08/22 01:00:05;;;;;;;11.70;8.75;;;24.80;97.40;;;;;;9756382;22;20202;-86
2023/08/22 01:03:50;;;;;;;10.43;9.43;;;24.80;97.50;;;;;;9756594;22;20145;-86
2023/08/22 01:07:45;;;;;;;13.35;10.07;;;24.80;97.60;;;;;;9755954;22;20194;-87
2023/08/22 01:11:47;;;;;;;12.85;8.98;;;24.70;97.70;;;;;;9756122;22;20490;-87
2023/08/22 01:15:37;;;;;;;12.25;9.95;;;24.70;97.80;;;;;;9756001;22;20148;-86
2023/08/22 01:19:23;;;;;;;14.90;9.73;;;24.60;97.90;;;;;;9755599;22;20180;-87
2023/08/22 01:23:09;;;;;;;11.18;9.82;;;24.50;98.00;;;;;;9755736;22;20186;-87
2023/08/22 01:26:55;;;;;;;11.50;9.80;;;24.50;98.10;;;;;;9782892;22;20152;-86
2023/08/22 01:30:54;;;;;;;11.00;9.60;;;24.50;98.10;;;;;;9755793;22;20182;-87
2023/08/22 01:34:40;;;;;;;11.13;9.38;;;24.50;98.20;;;;;;9755483;22;20139;-87
2023/08/22 01:38:28;;;;;;;12.57;9.15;;;24.40;98.20;;;;;;9782759;22;20175;-87
2023/08/22 01:42:13;;;;;;;12.52;9.52;;;24.40;98.30;;;;;;9783257;22;20152;-87
2023/08/22 01:45:59;;;;;;;9.70;8.63;;;24.40;98.40;;;;;;9755693;22;20152;-86
2023/08/22 01:49:45;;;;;;;10.73;9.02;;;24.40;98.50;;;;;;9755710;22;20244;-87
2023/08/22 01:53:30;;;;;;;12.15;9.07;;;24.30;98.50;;;;;;9755319;22;20194;-87
2023/08/22 01:57:16;;;;;;;10.30;9.30;;;24.30;98.60;;;;;;9755432;22;20166;-86
2023/08/22 02:01:12;;;;;;;11.32;9.73;;;24.20;98.60;;;;;;9755377;22;20202;-87
2023/08/22 02:04:57;;;;;;;10.10;9.07;;;24.20;98.70;;;;;;9755299;22;20152;-87
2023/08/22 02:08:43;;;;;;;9.68;8.60;;;24.20;98.80;;;;;;9755151;22;20194;-87
2023/08/22 02:12:28;;;;;;;11.30;9.40;;;24.10;98.80;;;;;;9755291;22;20156;-85
2023/08/22 02:16:15;;;;;;;11.52;9.82;;;24.10;98.90;;;;;;9755334;22;20710;-87
2023/08/22 02:20:00;;;;;;;11.55;9.30;;;24.10;99.00;;;;;;9755342;22;20179;-87
2023/08/22 02:23:46;;;;;;;10.98;8.50;;;24.00;99.00;;;;;;9756206;22;20645;-87
2023/08/22 02:27:32;;;;;;;10.52;8.73;;;24.00;99.20;;;;;;9758217;22;20179;-87
2023/08/22 02:31:17;;;;;;;14.75;8.70;;;24.00;99.20;;;;;;9758477;22;20183;-86
2023/08/22 02:35:03;;;;;;;13.27;9.73;;;23.90;99.30;;;;;;9758597;22;20152;-86
2023/08/22 02:38:49;;;;;;;11.00;9.38;;;23.90;99.40;;;;;;9758602;22;20229;-86
2023/08/22 02:42:35;;;;;;;11.07;8.98;;;23.90;99.50;;;;;;9759209;22;20167;-86
2023/08/22 02:46:21;;;;;;;9.02;8.13;;;23.90;99.50;;;;;;9758205;22;20160;-87
2023/08/22 02:50:07;;;;;;;12.27;9.02;;;23.80;99.60;;;;;;9757983;22;20198;-86
2023/08/22 02:53:52;;;;;;;12.25;8.88;;;23.80;99.70;;;;;;9758177;22;20205;-86
2023/08/22 02:57:38;;;;;;;10.13;8.90;;;23.80;99.90;;;;;;9757669;22;20160;-87
2023/08/22 03:01:24;;;;;;;13.93;9.07;;;23.80;99.90;;;;;;9757770;22;20187;-87
2023/08/22 03:05:13;;;;;;;9.82;8.52;;;23.70;99.90;;;;;;9758560;22;20195;-86
2023/08/22 03:08:59;;;;;;;9.70;8.30;;;23.70;99.90;;;;;;9785908;22;20182;-87
2023/08/22 03:12:46;;;;;;;12.50;8.57;;;23.60;99.90;;;;;;9757871;22;20782;-87
2023/08/22 03:16:32;;;;;;;9.88;8.60;;;23.60;99.90;;;;;;9785023;22;20223;-87
2023/08/22 03:20:18;;;;;;;12.45;9.35;;;23.60;99.90;;;;;;9757590;22;20183;-86
2023/08/22 03:24:04;;;;;;;12.88;9.20;;;23.50;99.90;;;;;;9757657;22;20171;-87
2023/08/22 03:27:49;;;;;;;10.23;8.38;;;23.50;99.90;;;;;;9757431;22;20182;-87
2023/08/22 03:31:35;;;;;;;11.57;9.23;;;23.50;99.90;;;;;;9757421;22;20175;-86
2023/08/22 03:35:20;;;;;;;9.93;8.93;;;23.40;99.90;;;;;;9757596;22;20160;-87
2023/08/22 03:39:06;;;;;;;11.55;9.10;;;23.40;99.90;;;;;;9757247;22;20619;-86
2023/08/22 03:42:52;;;;;;;13.32;9.13;;;23.40;99.90;;;;;;9757314;22;20229;-86
2023/08/22 03:46:37;;;;;;;14.85;9.57;;;23.30;99.90;;;;;;9784241;22;20152;-87
2023/08/22 03:50:23;;;;;;;10.07;9.00;;;23.30;99.90;;;;;;9757067;22;20230;-86
2023/08/22 03:54:08;;;;;;;12.38;8.75;;;23.20;99.90;;;;;;9756514;22;20167;-87
2023/08/22 03:57:58;;;;;;;10.80;8.68;;;23.20;99.90;;;;;;9756320;22;20206;-86
2023/08/22 04:01:44;;;;;;;11.55;8.63;;;23.20;99.90;;;;;;9694265;22;20197;-86
2023/08/22 04:05:30;;;;;;;12.07;8.82;;;23.20;99.90;;;;;;9662333;23;20168;-87
2023/08/22 04:09:16;;;;;;;11.43;8.68;;;23.20;99.90;;;;;;9661306;23;20734;-86
2023/08/22 04:13:01;;;;;;;12.55;9.90;;;23.10;99.90;;;;;;9662418;23;20460;-86
2023/08/22 04:16:47;;;;;;;9.35;8.32;;;23.00;99.90;;;;;;9660310;23;20179;-86
2023/08/22 04:20:33;;;;;;;9.93;8.93;;;23.00;99.90;;;;;;9661283;23;20209;-87
2023/08/22 04:24:18;;;;;;;10.02;8.55;;;23.00;99.90;;;;;;9660984;23;20165;-86
2023/08/22 04:28:04;;;;;;;11.23;8.57;;;23.00;99.90;;;;;;9687497;23;20173;-86
2023/08/22 04:31:50;;;;;;;10.73;8.57;;;23.00;99.90;;;;;;9687579;23;20497;-86
2023/08/22 04:35:37;;;;;;;13.77;8.88;;;23.00;99.90;;;;;;9660077;23;20172;-86
2023/08/22 04:39:23;;;;;;;11.68;9.07;;;23.00;99.90;;;;;;9687876;23;20156;-87
2023/08/22 04:43:09;;;;;;;11.40;9.65;;;23.00;99.90;;;;;;9700588;22;20150;-89
2023/08/22 04:46:54;;;;;;;12.75;8.95;;;23.00;99.90;;;;;;9737048;22;20145;-87
2023/08/22 04:50:40;;;;;;;13.05;9.23;;;23.00;99.90;;;;;;9664844;23;20177;-86
2023/08/22 04:54:25;;;;;;;10.60;8.73;;;22.90;99.90;;;;;;9661637;23;20192;-87
2023/08/22 04:58:11;;;;;;;12.00;8.73;;;22.90;99.90;;;;;;9660114;23;20596;-87
2023/08/22 05:01:56;;;;;;;10.50;8.25;;;22.90;99.90;;;;;;9660416;23;20197;-86
2023/08/22 05:05:42;;;;;;;10.30;9.13;;;22.80;99.90;;;;;;9687269;23;20232;-87
2023/08/22 05:09:28;;;;;;;10.27;8.32;;;22.70;99.90;;;;;;9686813;23;20181;-86
2023/08/22 05:13:13;;;;;;;9.90;8.43;;;22.70;99.90;;;;;;9660400;23;20153;-86
2023/08/22 05:16:59;;;;;;;9.43;8.02;;;22.70;99.90;;;;;;9659844;23;20161;-86
2023/08/22 05:20:44;;;;;;;10.73;8.52;;;22.70;99.90;;;;;;9661011;23;20260;-88
2023/08/22 05:24:34;;;;;;;15.82;9.15;;;22.70;99.90;;;;;;9662981;23;20153;-90
2023/08/22 05:28:20;;;;;;;9.32;8.40;;;22.60;99.90;;;;;;9662197;23;20204;-86
2023/08/22 05:32:06;;;;;;;16.00;9.70;;;22.50;99.90;;;;;;9662208;23;20181;-88
2023/08/22 05:35:51;;;;;;;10.43;9.38;;;22.50;99.90;;;;;;9661412;23;20155;-89
2023/08/22 05:39:37;;;;;;;10.75;8.73;;;22.40;99.90;;;;;;9663110;23;20632;-88
2023/08/22 05:43:23;;;;;;;11.07;9.30;;;22.50;99.90;;;;;;9688529;23;20150;-88
2023/08/22 05:47:09;;;;;;;10.05;7.75;;;22.50;99.90;;;;;;9660648;23;20216;-87
2023/08/22 05:50:56;;;;;;;8.15;7.35;;;22.50;99.90;;;;;;9661847;23;20669;-88
2023/08/22 05:54:43;;;;;;;8.80;7.85;;;22.60;99.90;;;;;;9661107;23;20181;-89
2023/08/22 05:58:28;;;;;;;9.00;7.80;;;22.60;99.90;;;;;;9659904;23;20184;-87
2023/08/22 06:02:14;;;;;;;10.38;8.95;;;22.70;99.90;;;;;;9688533;23;20188;-88
2023/08/22 06:06:00;;;;;;;8.77;7.88;;;22.70;99.90;;;;;;9690157;23;20157;-87
2023/08/22 06:09:45;;;;;;;13.20;8.15;;;22.70;99.90;;;;;;9686271;23;20197;-88
2023/08/22 06:13:31;;;;;;;12.48;9.88;;;22.80;99.90;;;;;;9686395;23;20189;-88
2023/08/22 06:17:17;;;;;;;9.32;8.18;;;22.80;99.90;;;;;;9685821;23;20165;-88
2023/08/22 06:21:02;;;;;;;13.70;10.77;;;22.80;99.90;;;;;;9687341;23;20177;-88
2023/08/22 06:24:48;;;;;;;9.73;7.95;;;22.90;99.90;;;;;;9689136;23;20161;-88
2023/08/22 06:28:34;;;;;;;10.70;8.70;;;22.90;99.90;;;;;;9689999;23;20632;-89
2023/08/22 06:32:22;;;;;;;16.90;10.77;;;22.90;99.90;;;;;;9687211;23;20176;-89
2023/08/22 06:36:08;;;;;;;15.98;10.68;;;23.00;99.90;;;;;;9664162;23;20157;-87
2023/08/22 06:39:53;;;;;;;17.45;9.80;;;23.10;99.90;;;;;;9689623;23;20217;-88
2023/08/22 06:43:39;;;;;;;13.63;10.20;;;23.30;99.90;;;;;;9662092;23;20158;-88
2023/08/22 06:47:25;;;;;;;13.52;9.75;;;23.40;99.90;;;;;;9688132;23;20621;-88
2023/08/22 06:51:12;;;;;;;14.07;9.48;;;23.50;99.90;;;;;;9693660;23;20173;-88
2023/08/22 06:54:58;;;;;;;13.10;10.18;;;23.50;99.90;;;;;;9693922;23;20162;-89
2023/08/22 06:58:44;;;;;;;13.18;9.75;;;23.50;99.90;;;;;;9688948;23;20157;-88
2023/08/22 07:02:29;;;;;;;12.00;9.65;;;23.70;99.90;;;;;;9688383;23;20185;-89
2023/08/22 07:06:15;;;;;;;14.27;9.68;;;23.90;99.90;;;;;;9685546;23;20195;-88
2023/08/22 07:10:00;;;;;;;15.20;9.90;;;24.10;99.90;;;;;;9686342;23;20189;-88
2023/08/22 07:13:46;;;;;;;14.82;9.70;;;24.30;99.90;;;;;;9689855;23;20161;-87
2023/08/22 07:17:32;;;;;;;12.00;8.57;;;24.50;99.90;;;;;;9687997;23;20181;-88
2023/08/22 07:21:17;;;;;;;11.43;8.73;;;24.60;99.90;;;;;;9689107;23;20188;-88
2023/08/22 07:25:03;;;;;;;13.60;8.80;;;24.80;99.90;;;;;;9687460;23;20177;-88
2023/08/22 07:28:49;;;;;;;9.38;8.13;;;24.90;99.90;;;;;;9687689;23;20181;-88
2023/08/22 07:32:35;;;;;;;9.38;8.15;;;25.00;99.90;;;;;;9688610;23;20177;-89
2023/08/22 07:36:21;;;;;;;8.43;7.63;;;25.20;99.90;;;;;;9688325;23;20150;-88
2023/08/22 07:40:07;;;;;;;9.48;8.05;;;25.30;99.90;;;;;;9688990;23;20514;-89
2023/08/22 07:43:53;;;;;;;8.45;7.10;;;25.50;99.90;;;;;;9688222;23;20183;-89
2023/08/22 07:47:38;;;;;;;14.15;7.63;;;25.50;99.90;;;;;;9688131;23;20181;-88
2023/08/22 07:51:24;;;;;;;9.57;6.93;;;25.70;99.90;;;;;;9688568;23;20278;-88
2023/08/22 07:55:10;;;;;;;11.38;6.93;;;25.80;99.90;;;;;;9688488;23;20158;-89
2023/08/22 07:58:55;;;;;;;10.38;6.90;;;25.90;99.90;;;;;;9689341;23;20149;-89
2023/08/22 08:02:42;;;;;;;10.98;7.00;;;26.10;99.90;;;;;;9687670;23;20633;-89
2023/08/22 08:06:33;;;;;;;9.90;7.20;;;26.20;99.90;;;;;;9689077;23;20218;-89
2023/08/22 08:10:18;;;;;;;9.02;6.97;;;26.30;99.90;;;;;;9735302;22;20177;-89
2023/08/22 08:14:04;;;;;;;12.40;6.88;;;26.50;99.90;;;;;;9726741;22;20164;-89
2023/08/22 08:17:49;;;;;;;8.45;7.40;;;26.60;99.90;;;;;;9690950;23;20161;-89
2023/08/22 08:21:35;;;;;;;9.02;6.88;;;26.70;99.90;;;;;;9687744;23;20204;-88
2023/08/22 08:25:21;;;;;;;9.02;7.20;;;26.90;99.90;;;;;;9689608;23;20153;-88
2023/08/22 08:29:06;;;;;;;8.98;7.35;;;26.90;99.90;;;;;;9689281;23;20528;-88
2023/08/22 08:32:52;;;;;;;10.60;7.18;;;27.10;99.90;;;;;;9691240;23;20189;-90
2023/08/22 08:36:44;;;;;;;8.18;7.03;;;27.20;99.90;;;;;;9686599;23;20157;-88
2023/08/22 08:40:34;;;;;;;14.65;7.25;;;27.30;99.90;;;;;;9688342;23;20560;-88
2023/08/22 08:44:21;;;;;;;10.52;6.70;;;27.40;99.90;;;;;;9687595;23;20566;-89
2023/08/22 08:48:07;;;;;;;8.27;6.22;;;27.50;99.90;;;;;;9687257;23;20216;-89
2023/08/22 08:51:54;;;;;;;9.40;6.40;;;27.60;99.70;;;;;;9686199;23;20794;-89
2023/08/22 08:55:40;;;;;;;9.30;5.38;;;27.70;97.80;;;;;;9686646;23;20157;-89
2023/08/22 08:59:27;;;;;;;7.45;5.82;;;27.80;97.10;;;;;;9686659;23;20185;-89
2023/08/22 09:03:16;;;;;;;8.88;6.38;;;27.90;97.70;;;;;;9688281;22;20514;-89
2023/08/22 09:07:01;;;;;;;13.35;6.57;;;28.00;96.30;;;;;;9686118;23;20228;-89
2023/08/22 09:10:52;;;;;;;7.20;6.47;;;28.00;96.50;;;;;;9687801;23;20188;-89
2023/08/22 09:14:45;;;;;;;7.07;6.15;;;28.10;97.00;;;;;;9687039;23;20488;-89
2023/08/22 09:18:31;;;;;;;9.70;6.30;;;28.00;95.30;;;;;;9686578;23;20249;-88
2023/08/22 09:22:16;;;;;;;7.35;6.13;;;28.10;97.10;;;;;;9687172;23;20192;-89
2023/08/22 09:26:03;;;;;;;9.02;6.25;;;28.20;95.80;;;;;;9686783;23;20237;-88
2023/08/22 09:29:49;;;;;;;8.85;6.25;;;28.20;95.30;;;;;;9685770;23;20193;-89
2023/08/22 09:33:45;;;;;;;8.52;6.28;;;28.10;95.80;;;;;;9688529;23;20172;-89
2023/08/22 09:37:32;;;;;;;7.35;6.35;;;28.30;96.10;;;;;;9687221;23;20157;-89
2023/08/22 09:41:28;;;;;;;9.65;6.75;;;28.50;94.90;;;;;;9687837;23;20270;-89
2023/08/22 09:45:17;;;;;;;11.82;6.80;;;28.40;95.80;;;;;;9688297;23;20477;-89
2023/08/22 09:49:15;;;;;;;9.63;6.97;;;28.30;96.30;;;;;;9687605;23;20263;-89
2023/08/22 09:53:01;;;;;;;7.50;6.72;;;28.20;96.30;;;;;;9689507;23;20226;-90
2023/08/22 09:56:47;;;;;;;9.60;7.25;;;28.40;95.90;;;;;;9705678;22;20161;-90
2023/08/22 12:17:51;;;;;;;5.97;3.88;;;30.40;83.20;;;;;;9618522;22;20790;-91
2023/08/22 12:21:37;;;;;;;10.10;3.88;;;30.60;82.20;;;;;;9641241;23;20190;-91
2023/08/22 12:25:23;;;;;;;5.55;3.90;;;30.60;79.50;;;;;;9641548;23;20150;-90
2023/08/22 12:29:09;;;;;;;8.73;4.07;;;30.60;80.90;;;;;;9641843;23;20178;-90
2023/08/22 12:32:54;;;;;;;6.28;4.38;;;30.60;81.40;;;;;;9642729;23;20189;-91
2023/08/22 12:36:40;;;;;;;4.57;3.92;;;30.50;81.00;;;;;;9643410;23;20173;-93
2023/08/22 12:40:26;;;;;;;14.40;4.05;;;30.30;81.90;;;;;;9647707;23;20201;-92
2023/08/22 12:44:15;;;;;;;6.03;3.60;;;30.30;83.50;;;;;;9644923;23;20388;-91
2023/08/22 12:48:00;;;;;;;12.15;4.18;;;30.10;84.90;;;;;;9642003;23;20182;-90
2023/08/22 12:51:48;;;;;;;12.93;3.90;;;30.10;83.40;;;;;;9667249;23;20174;-91
2023/08/22 12:55:34;;;;;;;7.55;3.58;;;30.10;83.70;;;;;;9641743;23;20606;-91
2023/08/22 12:59:19;;;;;;;7.35;4.00;;;30.20;84.20;;;;;;9667086;23;20232;-91
2023/08/22 13:03:05;;;;;;;6.78;3.80;;;30.10;82.50;;;;;;9641927;23;20672;-91
2023/08/22 13:06:57;;;;;;;7.88;4.20;;;30.20;82.80;;;;;;9643711;23;20279;-92
2023/08/22 13:10:43;;;;;;;7.68;4.18;;;30.10;83.50;;;;;;9641684;23;20576;-91
2023/08/22 13:14:29;;;;;;;10.65;4.03;;;30.20;83.60;;;;;;9641667;23;20161;-92
2023/08/22 13:18:15;;;;;;;5.38;4.05;;;30.20;83.30;;;;;;9642823;23;20614;-91
2023/08/22 13:22:00;;;;;;;7.93;4.13;;;30.30;82.50;;;;;;9642532;23;20178;-90
2023/08/22 13:25:46;;;;;;;8.90;4.13;;;30.20;83.70;;;;;;9644112;23;20257;-91
2023/08/22 13:29:31;;;;;;;4.18;3.78;;;30.20;83.70;;;;;;9643957;23;20189;-91
2023/08/22 13:33:17;;;;;;;7.53;3.97;;;30.10;83.30;;;;;;9643142;23;20189;-92
2023/08/22 13:37:03;;;;;;;5.78;4.50;;;30.10;83.60;;;;;;9643262;23;20468;-91
2023/08/22 13:40:52;;;;;;;7.50;3.90;;;30.10;82.40;;;;;;9645177;23;20178;-91
2023/08/22 13:44:38;;;;;;;8.07;3.70;;;30.20;83.40;;;;;;9644361;23;20703;-91
2023/08/22 13:48:24;;;;;;;6.45;4.25;;;30.20;82.40;;;;;;9645696;23;20185;-91
2023/08/22 13:52:09;;;;;;;4.78;3.80;;;30.20;83.60;;;;;;9643827;23;20184;-89
2023/08/22 13:55:55;;;;;;;6.93;4.28;;;30.20;83.10;;;;;;9641261;23;20900;-89
2023/08/22 13:59:42;;;;;;;6.13;4.05;;;30.10;81.30;;;;;;9641533;23;20158;-91
2023/08/22 14:03:27;;;;;;;5.93;4.22;;;30.10;82.10;;;;;;9642060;23;20158;-91
2023/08/22 14:07:13;;;;;;;4.40;3.97;;;30.20;82.00;;;;;;9643075;23;20142;-91
2023/08/22 14:10:58;;;;;;;9.35;4.53;;;30.10;83.10;;;;;;9642380;23;20182;-92
2023/08/22 14:14:44;;;;;;;10.45;4.30;;;30.20;82.20;;;;;;9642028;23;20154;-90
2023/08/22 14:18:30;;;;;;;9.45;4.18;;;30.10;81.70;;;;;;9642042;23;20178;-91
2023/08/22 14:22:15;;;;;;;7.13;4.03;;;30.20;82.20;;;;;;9646541;23;20178;-92
2023/08/22 14:26:01;;;;;;;10.32;4.30;;;30.10;82.90;;;;;;9645987;23;20595;-92
2023/08/22 14:29:46;;;;;;;7.85;4.03;;;30.10;82.00;;;;;;9646293;23;20629;-90
2023/08/22 14:33:32;;;;;;;12.13;4.10;;;30.10;81.90;;;;;;9670410;23;20185;-91
2023/08/22 14:37:20;;;;;;;7.00;3.85;;;30.10;81.30;;;;;;9646963;23;20237;-91
2023/08/22 14:41:07;;;;;;;6.90;4.70;;;30.00;80.00;;;;;;9645138;23;20177;-91
2023/08/22 14:44:52;;;;;;;6.38;4.35;;;29.90;80.90;;;;;;9644274;23;20691;-91
2023/08/22 14:48:38;;;;;;;7.68;4.32;;;29.80;82.10;;;;;;9644886;23;20757;-92
2023/08/22 14:52:23;;;;;;;9.15;4.28;;;30.00;82.00;;;;;;9644556;23;20178;-91
2023/08/22 14:56:09;;;;;;;12.77;4.47;;;30.00;82.00;;;;;;9644536;23;20161;-91
2023/08/22 14:59:55;;;;;;;6.97;4.28;;;30.00;81.10;;;;;;9643872;23;20161;-91
2023/08/22 15:03:40;;;;;;;8.77;4.30;;;29.90;79.40;;;;;;9645226;23;20158;-92
2023/08/22 15:07:38;;;;;;;7.65;4.63;;;29.70;80.80;;;;;;9644696;23;20185;-92
2023/08/22 15:11:24;;;;;;;6.20;5.15;;;29.60;81.20;;;;;;9644381;23;20508;-91
2023/08/22 15:15:09;;;;;;;5.07;4.53;;;29.50;80.70;;;;;;9644691;23;20172;-92
2023/08/22 15:19:04;;;;;;;5.68;4.30;;;29.50;80.50;;;;;;9643972;23;20635;-92
2023/08/22 15:22:50;;;;;;;5.75;4.57;;;29.40;80.30;;;;;;9645196;23;20181;-91
2023/08/22 15:26:38;;;;;;;5.72;3.97;;;29.50;80.50;;;;;;9644343;23;20165;-92
2023/08/22 15:30:24;;;;;;;8.35;5.18;;;29.50;81.10;;;;;;9644129;23;20189;-91
2023/08/22 15:34:14;;;;;;;6.53;4.40;;;29.50;79.20;;;;;;9643768;23;20616;-91
2023/08/22 15:37:59;;;;;;;9.52;5.05;;;29.40;80.10;;;;;;9644377;23;20158;-92
2023/08/22 15:41:45;;;;;;;7.03;4.88;;;29.20;80.70;;;;;;9644618;23;20178;-92
2023/08/22 15:45:31;;;;;;;8.70;5.07;;;29.00;81.60;;;;;;9643887;23;20165;-91
2023/08/22 15:49:16;;;;;;;6.35;5.75;;;28.90;81.80;;;;;;9643628;23;20687;-93
2023/08/22 15:53:02;;;;;;;6.13;5.05;;;28.90;83.10;;;;;;9643312;23;20174;-92
2023/08/22 15:56:48;;;;;;;10.93;5.75;;;29.10;83.90;;;;;;9644388;23;20203;-92
2023/08/22 16:00:34;;;;;;;12.20;6.20;;;29.10;84.10;;;;;;9643387;23;20296;-91
2023/08/22 16:04:20;;;;;;;11.07;6.50;;;28.90;84.70;;;;;;9644070;23;20174;-92
2023/08/22 16:08:05;;;;;;;7.10;5.85;;;28.90;86.70;;;;;;9643301;23;20247;-90
2023/08/22 16:11:51;;;;;;;9.50;6.57;;;29.00;87.00;;;;;;9642669;23;20261;-92
2023/08/22 16:15:38;;;;;;;9.95;7.03;;;29.30;87.10;;;;;;9690619;22;20276;-90
2023/08/22 16:19:25;;;;;;;11.13;6.80;;;29.40;86.80;;;;;;9755346;22;20145;-86
2023/08/22 16:23:10;;;;;;;9.93;6.63;;;29.30;87.20;;;;;;9749459;22;20153;-90
2023/08/22 16:26:56;;;;;;;8.15;6.45;;;29.10;88.10;;;;;;9711207;22;20265;-90
2023/08/22 16:30:41;;;;;;;8.27;6.07;;;29.10;88.90;;;;;;9709047;22;20185;-89
2023/08/22 16:34:27;;;;;;;10.82;6.68;;;29.20;89.00;;;;;;9711831;22;20179;-89
2023/08/22 16:38:13;;;;;;;10.95;6.65;;;29.20;87.80;;;;;;9711121;22;20156;-89
2023/08/22 16:41:58;;;;;;;7.80;6.20;;;29.10;88.60;;;;;;9708887;22;20160;-89
2023/08/22 16:45:44;;;;;;;11.48;6.40;;;29.00;88.70;;;;;;9707918;22;20188;-89
2023/08/22 16:49:30;;;;;;;8.88;6.70;;;29.10;89.60;;;;;;9736319;22;20173;-90
2023/08/22 16:53:15;;;;;;;8.70;5.80;;;29.10;88.60;;;;;;9709929;22;20149;-90
2023/08/22 16:57:02;;;;;;;7.72;6.50;;;29.00;89.70;;;;;;9709495;22;20515;-87
2023/08/22 17:00:48;;;;;;;7.65;6.32;;;29.10;89.80;;;;;;9708414;22;20160;-89
2023/08/22 17:04:33;;;;;;;10.25;6.90;;;29.20;90.00;;;;;;9706183;22;20180;-89
2023/08/22 17:08:19;;;;;;;11.68;6.90;;;29.10;88.90;;;;;;9707413;22;20181;-89
2023/08/22 17:12:05;;;;;;;9.48;6.70;;;29.10;89.80;;;;;;9707380;22;20191;-85
2023/08/22 17:15:58;;;;;;;10.20;6.85;;;29.10;89.80;;;;;;9707569;22;20193;-85
2023/08/22 17:19:44;;;;;;;8.65;6.25;;;29.10;89.20;;;;;;9706564;22;20179;-87
2023/08/22 17:23:29;;;;;;;7.43;6.63;;;29.20;89.60;;;;;;9706402;22;20164;-87
2023/08/22 17:27:15;;;;;;;9.77;7.00;;;29.30;89.40;;;;;;9706071;22;20216;-86
2023/08/22 17:31:05;;;;;;;10.13;6.30;;;29.30;89.30;;;;;;9706909;22;20161;-86
2023/08/22 17:34:51;;;;;;;9.88;6.72;;;29.40;89.20;;;;;;9706257;22;20267;-87
2023/08/22 17:38:38;;;;;;;9.10;6.93;;;29.40;89.20;;;;;;9706754;22;20161;-86
2023/08/22 17:42:23;;;;;;;8.23;7.30;;;29.30;88.50;;;;;;9707176;22;20161;-87
2023/08/22 17:46:09;;;;;;;10.65;6.57;;;29.30;89.00;;;;;;9707069;22;20177;-85
2023/08/22 17:49:54;;;;;;;9.93;6.45;;;29.30;88.90;;;;;;9706434;22;20504;-84
2023/08/22 17:53:40;;;;;;;11.43;6.45;;;29.30;88.80;;;;;;9706832;22;20164;-87
2023/08/22 17:57:26;;;;;;;15.52;6.65;;;29.20;89.00;;;;;;9706075;22;20177;-88
2023/08/22 18:01:12;;;;;;;13.98;6.35;;;29.30;89.00;;;;;;9707495;22;20156;-87
2023/08/22 18:04:57;;;;;;;11.07;6.15;;;29.20;89.00;;;;;;9704758;22;20175;-88
2023/08/22 18:08:43;;;;;;;18.13;6.50;;;29.30;89.30;;;;;;9705574;22;20765;-87
2023/08/22 18:12:29;;;;;;;11.73;5.72;;;29.30;89.20;;;;;;9706305;22;20160;-87
2023/08/22 18:16:14;;;;;;;10.85;6.82;;;29.30;89.30;;;;;;9706214;22;20261;-87
2023/08/22 18:20:02;;;;;;;9.00;7.97;;;29.20;89.40;;;;;;9706251;22;20160;-88
2023/08/22 18:23:48;;;;;;;9.40;7.50;;;29.20;89.80;;;;;;9707303;22;20512;-88
2023/08/22 18:27:34;;;;;;;13.85;10.38;;;29.20;89.60;;;;;;9706732;22;20190;-88
2023/08/22 18:31:27;;;;;;;13.30;10.07;;;29.20;90.00;;;;;;9708599;22;20157;-88
2023/08/22 18:35:12;;;;;;;10.60;8.50;;;29.10;90.00;;;;;;9707348;22;20204;-88
2023/08/22 18:38:58;;;;;;;9.13;7.22;;;29.10;90.00;;;;;;9706705;22;20585;-85
2023/08/22 18:42:44;;;;;;;7.20;6.05;;;29.10;89.80;;;;;;9705400;22;20183;-88
2023/08/22 18:46:30;;;;;;;8.05;5.60;;;29.10;90.00;;;;;;9705301;22;20176;-86
2023/08/22 18:50:15;;;;;;;5.95;5.35;;;29.00;90.20;;;;;;9708007;22;20234;-87
2023/08/22 18:54:01;;;;;;;6.50;5.88;;;29.00;90.20;;;;;;9713102;22;20145;-87
2023/08/22 18:57:48;;;;;;;6.80;5.60;;;28.90;90.20;;;;;;9710820;22;20149;-88
2023/08/22 19:01:36;;;;;;;6.78;5.75;;;28.90;90.10;;;;;;9714696;22;20179;-88
2023/08/22 19:05:22;;;;;;;7.00;6.25;;;28.90;90.30;;;;;;9705902;22;20188;-86
2023/08/22 19:09:08;;;;;;;6.47;5.70;;;28.90;90.60;;;;;;9735287;22;20168;-89
2023/08/22 19:12:53;;;;;;;7.32;5.25;;;28.80;90.70;;;;;;9707998;22;20153;-90
2023/08/22 19:16:39;;;;;;;7.18;5.72;;;28.80;90.70;;;;;;9735068;22;20192;-88
2023/08/22 19:20:25;;;;;;;10.02;5.63;;;28.60;90.40;;;;;;9708181;22;20496;-88
2023/08/22 19:24:10;;;;;;;11.43;6.45;;;28.60;90.60;;;;;;9707608;22;20176;-87
2023/08/22 19:27:56;;;;;;;6.82;5.32;;;28.60;90.40;;;;;;9707147;22;20489;-88
2023/08/22 19:31:42;;;;;;;5.78;4.43;;;28.40;90.60;;;;;;9707539;22;20149;-88
2023/08/22 19:35:28;;;;;;;5.68;3.92;;;28.10;90.30;;;;;;9707693;22;20212;-89
2023/08/22 19:39:14;;;;;;;7.68;4.65;;;28.10;91.10;;;;;;9714712;22;20164;-86
2023/08/22 19:42:59;;;;;;;8.40;4.00;;;28.10;90.60;;;;;;9754503;22;20164;-85
2023/08/22 19:46:45;;;;;;;6.97;4.43;;;28.00;90.80;;;;;;9744426;22;20822;-88
2023/08/22 19:50:31;;;;;;;5.90;4.00;;;28.00;90.90;;;;;;9709211;22;20181;-88
2023/08/22 19:54:16;;;;;;;5.32;4.00;;;28.10;91.10;;;;;;9705778;22;20181;-88
2023/08/22 19:58:02;;;;;;;5.50;3.47;;;28.00;90.80;;;;;;9703998;22;20167;-87
2023/08/22 20:01:48;;;;;;;7.03;3.92;;;28.10;91.10;;;;;;9731788;22;20153;-87
2023/08/22 20:05:33;;;;;;;6.70;3.60;;;28.10;91.10;;;;;;9704085;22;20187;-88
2023/08/22 20:09:20;;;;;;;8.55;3.55;;;28.00;90.70;;;;;;9703398;22;20525;-86
2023/08/22 20:13:06;;;;;;;7.32;3.53;;;28.00;90.90;;;;;;9704418;22;20164;-88
2023/08/22 20:16:51;;;;;;;6.05;3.88;;;27.90;91.00;;;;;;9703319;22;20202;-86
2023/08/22 20:20:37;;;;;;;4.82;3.40;;;27.90;91.20;;;;;;9703978;22;20157;-88
2023/08/22 20:24:23;;;;;;;4.88;3.33;;;27.90;91.00;;;;;;9731869;22;20173;-87
2023/08/22 20:28:08;;;;;;;9.07;3.15;;;27.90;91.10;;;;;;9730933;22;20631;-89
2023/08/22 20:31:56;;;;;;;3.95;3.05;;;27.90;91.20;;;;;;9704869;22;20157;-87
2023/08/22 20:35:48;;;;;;;6.00;3.38;;;27.80;91.30;;;;;;9704604;22;20180;-86
2023/08/22 20:39:34;;;;;;;6.80;3.20;;;27.80;91.30;;;;;;9704505;22;20145;-87
2023/08/22 20:43:19;;;;;;;5.55;3.28;;;27.80;91.30;;;;;;9704996;22;20206;-86
2023/08/22 20:47:05;;;;;;;3.85;2.72;;;27.70;91.40;;;;;;9705387;22;20180;-88
2023/08/22 20:50:51;;;;;;;6.35;3.00;;;27.70;91.30;;;;;;9704140;22;20172;-85
2023/08/22 20:54:37;;;;;;;5.30;2.83;;;27.60;91.20;;;;;;9703192;22;20177;-84
2023/08/22 20:58:22;;;;;;;6.43;3.15;;;27.60;91.30;;;;;;9704283;22;20198;-88
2023/08/22 21:02:08;;;;;;;4.63;3.00;;;27.50;91.30;;;;;;9704566;22;20168;-88
2023/08/22 21:05:53;;;;;;;5.00;3.00;;;27.50;91.50;;;;;;9704115;22;20483;-87
2023/08/22 21:09:39;;;;;;;5.45;2.70;;;27.50;91.50;;;;;;9729407;22;20608;-86
2023/08/22 21:13:25;;;;;;;6.90;3.10;;;27.50;91.70;;;;;;9703176;22;20156;-88
2023/08/22 21:17:11;;;;;;;5.25;2.92;;;27.30;91.40;;;;;;9703627;22;20196;-86
2023/08/22 21:20:57;;;;;;;7.03;2.70;;;27.30;91.60;;;;;;9705878;22;20156;-85
2023/08/22 21:24:44;;;;;;;4.88;2.67;;;27.30;91.80;;;;;;9706729;22;20184;-86
2023/08/22 21:28:29;;;;;;;3.67;2.65;;;27.20;91.80;;;;;;9707252;22;20176;-87
2023/08/22 21:32:15;;;;;;;5.95;2.63;;;27.10;91.80;;;;;;9707732;22;20153;-86
2023/08/22 21:36:01;;;;;;;5.13;2.90;;;27.10;91.80;;;;;;9706784;22;20180;-87
2023/08/22 21:39:47;;;;;;;4.93;2.67;;;27.10;91.70;;;;;;9706813;22;20157;-86
2023/08/22 21:43:33;;;;;;;4.65;2.50;;;27.10;91.60;;;;;;9707823;22;20157;-86
2023/08/22 21:47:19;;;;;;;3.70;2.30;;;27.00;91.80;;;;;;9706985;22;20188;-86
2023/08/22 21:51:04;;;;;;;3.90;2.58;;;27.00;92.00;;;;;;9706722;22;20215;-88